Hanford, California
Current Conditions -  °F | °C
As of 3:53 PM on Friday 21 Nov 2014 (Local Time) from KHJO Reporting Station
Overcast Overcast  
Wind Chill: 56°   Ceiling: 1800
Heat Index: 56°   Visibility: 8mi
Dew Point: 47°   Wind: 6mph
Humidity: 72%   Direction: 330°NNW
Pressure: 30.13"   Gusts: NA
Location:  36.33°N, 119.64°W
Report Text: KHJO 212353Z AUTO 33005KT 8SM OVC018 13/08 A3013 RMK AO2 SLP203 T01330083 10139 20111 50004
Loading
Personal Weather Stations






























Interactive Weather Map New forecast layout! Learn more

10-Day Weather Forecast

Advertisements
Track Severe Weather on mobile